TimeEDT,TemperatureF,Dew PointF,Humidity,Sea Level PressureIn,VisibilityMPH,Wind Direction,Wind SpeedMPH,Gust SpeedMPH,PrecipitationIn,Events,Conditions,WindDirDegrees,DateUTC
12:51 AM,36.0,34.0,93,29.98,7.0,Calm,Calm,-,N/A,,Clear,0,2012-10-17 04:51:00
1:51 AM,34.0,33.1,96,30.00,7.0,Calm,Calm,-,N/A,,Clear,0,2012-10-17 05:51:00
2:51 AM,33.1,32.0,96,29.99,5.0,Calm,Calm,-,N/A,,Clear,0,2012-10-17 06:51:00
3:44 AM,33.8,32.0,93,29.95,1.2,West,3.5,-,N/A,,Partly Cloudy,280,2012-10-17 07:44:00
3:47 AM,33.8,30.2,87,29.95,0.8,Calm,Calm,-,N/A,,Mist,0,2012-10-17 07:47:00
3:51 AM,33.1,32.0,96,29.98,0.5,WSW,3.5,-,N/A,Fog,Fog,250,2012-10-17 07:51:00
3:58 AM,33.8,33.8,100,29.95,0.2,Calm,Calm,-,N/A,Fog,Fog,0,2012-10-17 07:58:00
4:17 AM,32.0,30.2,93,29.95,1.0,Calm,Calm,-,N/A,,Mist,0,2012-10-17 08:17:00
4:37 AM,32.0,30.2,93,29.96,1.5,SE,3.5,-,N/A,,Partly Cloudy,130,2012-10-17 08:37:00
4:43 AM,32.0,30.2,93,29.96,3.0,Calm,Calm,-,N/A,,Partly Cloudy,0,2012-10-17 08:43:00
4:51 AM,32.0,30.9,96,29.99,4.0,Calm,Calm,-,N/A,,Partly Cloudy,0,2012-10-17 08:51:00
5:21 AM,32.0,30.2,93,29.97,2.5,Calm,Calm,-,N/A,,Mostly Cloudy,0,2012-10-17 09:21:00
5:26 AM,32.0,30.2,93,29.97,0.8,Calm,Calm,-,N/A,,Mist,0,2012-10-17 09:26:00
5:38 AM,32.0,30.2,93,29.97,0.2,Calm,Calm,-,N/A,Fog,Fog,0,2012-10-17 09:38:00
5:51 AM,32.0,30.9,96,30.01,0.2,Calm,Calm,-,N/A,Fog,Fog,0,2012-10-17 09:51:00
6:16 AM,30.2,30.2,100,29.97,0.5,Calm,Calm,-,N/A,Fog,Light Freezing Fog,0,2012-10-17 10:16:00
6:51 AM,30.9,30.0,96,30.04,0.8,Calm,Calm,-,N/A,,Overcast,0,2012-10-17 10:51:00
7:12 AM,30.2,30.2,100,29.98,0.2,Calm,Calm,-,N/A,Fog,Light Freezing Fog,0,2012-10-17 11:12:00
7:51 AM,30.9,30.0,96,30.05,0.2,Calm,Calm,-,N/A,Fog,Light Freezing Fog,0,2012-10-17 11:51:00
8:51 AM,32.0,30.9,96,30.04,0.8,Calm,Calm,-,0.01,,Mist,0,2012-10-17 12:51:00
9:09 AM,33.8,33.8,100,29.99,2.0,Calm,Calm,-,N/A,,Mostly Cloudy,0,2012-10-17 13:09:00
9:16 AM,35.6,33.8,93,29.99,5.0,Calm,Calm,-,N/A,,Scattered Clouds,0,2012-10-17 13:16:00
9:51 AM,42.1,36.0,79,30.04,10.0,Calm,Calm,-,0.01,,Clear,0,2012-10-17 13:51:00
10:51 AM,48.9,39.0,69,30.01,10.0,Calm,Calm,-,N/A,,Clear,0,2012-10-17 14:51:00
11:51 AM,57.9,41.0,53,29.97,10.0,Calm,Calm,-,N/A,,Clear,0,2012-10-17 15:51:00
12:51 PM,66.0,33.1,29,29.93,10.0,Variable,3.5,-,N/A,,Clear,0,2012-10-17 16:51:00
1:51 PM,71.1,19.0,14,29.90,10.0,Calm,Calm,-,0.01,,Clear,0,2012-10-17 17:51:00
2:51 PM,72.0,19.0,13,29.87,10.0,Variable,3.5,-,N/A,,Clear,0,2012-10-17 18:51:00
3:51 PM,73.0,21.9,15,29.85,10.0,WSW,4.6,-,N/A,,Clear,240,2012-10-17 19:51:00
4:51 PM,73.0,27.0,18,29.85,10.0,SW,8.1,-,N/A,,Clear,220,2012-10-17 20:51:00
5:51 PM,69.1,27.0,21,29.85,10.0,South,6.9,-,N/A,,Clear,180,2012-10-17 21:51:00
6:51 PM,64.0,27.0,25,29.88,10.0,South,3.5,-,N/A,,Clear,180,2012-10-17 22:51:00
7:51 PM,54.0,33.1,45,29.90,10.0,SSE,3.5,-,N/A,,Clear,150,2012-10-17 23:51:00
8:51 PM,52.0,33.1,49,29.91,10.0,SSE,4.6,-,N/A,,Clear,150,2012-10-18 00:51:00
9:51 PM,55.0,33.1,43,29.89,10.0,SE,5.8,-,N/A,,Clear,130,2012-10-18 01:51:00
10:51 PM,57.9,39.9,51,29.86,10.0,South,9.2,18.4,N/A,,Clear,170,2012-10-18 02:51:00
11:51 PM,57.0,41.0,55,29.83,10.0,SSE,10.4,23.0,N/A,,Clear,150,2012-10-18 03:51:00